createdAt,value
2022-10-07T00:00:53.745Z,4.87
2022-10-07T00:03:22.125Z,5.80
2022-10-07T00:06:00.281Z,5.70
2022-10-07T00:08:26.917Z,4.43
2022-10-07T00:10:53.553Z,5.87
2022-10-07T00:13:20.227Z,5.07
2022-10-07T00:15:46.858Z,5.40
2022-10-07T00:18:13.585Z,5.40
2022-10-07T00:20:40.549Z,5.87
2022-10-07T00:23:08.059Z,5.10
2022-10-07T00:25:37.914Z,5.60
2022-10-07T00:28:05.413Z,5.47
2022-10-07T00:30:32.482Z,5.90
2022-10-07T00:32:59.242Z,5.00
2022-10-07T00:35:25.912Z,4.67
2022-10-07T00:37:52.578Z,4.97
2022-10-07T00:40:19.235Z,4.93
2022-10-07T00:42:46.155Z,5.13
2022-10-07T00:45:19.366Z,6.00
2022-10-07T00:47:48.904Z,5.33
2022-10-07T00:50:26.014Z,5.30
2022-10-07T00:52:57.374Z,5.10
2022-10-07T00:55:28.601Z,6.20
2022-10-07T00:57:59.096Z,4.30
2022-10-07T01:00:25.959Z,5.53
2022-10-07T01:02:52.818Z,4.80
2022-10-07T01:05:19.956Z,4.80
2022-10-07T01:07:48.912Z,4.90
2022-10-07T01:10:19.929Z,5.13
2022-10-07T01:13:05.408Z,5.03
2022-10-07T01:15:49.183Z,5.60
2022-10-07T01:18:25.214Z,5.77
2022-10-07T01:20:58.085Z,5.17
2022-10-07T01:23:53.033Z,4.97
2022-10-07T01:26:47.446Z,4.80
2022-10-07T01:29:19.696Z,5.07
2022-10-07T01:31:58.852Z,5.40
2022-10-07T01:34:26.801Z,5.87
2022-10-07T01:36:57.676Z,4.20
2022-10-07T01:39:30.613Z,4.60
2022-10-07T01:41:58.209Z,4.60
2022-10-07T01:44:28.309Z,4.63
2022-10-07T01:46:55.209Z,4.10
2022-10-07T01:49:22.367Z,4.17
2022-10-07T01:52:02.255Z,4.90
2022-10-07T01:55:06.752Z,4.43
2022-10-07T01:57:39.293Z,4.27
2022-10-07T02:00:16.092Z,4.00
2022-10-07T02:02:47.241Z,3.90
2022-10-07T02:05:27.108Z,4.10
2022-10-07T02:08:04.790Z,3.87
2022-10-07T02:10:44.793Z,4.87
2022-10-07T02:13:19.314Z,4.33
2022-10-07T02:15:53.385Z,4.10
2022-10-07T02:18:20.806Z,5.10
2022-10-07T02:20:51.971Z,4.57
2022-10-07T02:23:21.645Z,5.03
2022-10-07T02:25:53.586Z,4.80
2022-10-07T02:28:23.638Z,4.30
2022-10-07T02:30:54.647Z,4.27
2022-10-07T02:33:26.307Z,3.63
2022-10-07T02:35:56.818Z,4.00
2022-10-07T02:38:23.637Z,4.97
2022-10-07T02:40:59.844Z,4.53
2022-10-07T02:43:56.255Z,4.40
2022-10-07T02:46:27.479Z,4.90
2022-10-07T02:48:59.039Z,4.67
2022-10-07T02:51:33.836Z,5.33
2022-10-07T02:54:03.626Z,4.20
2022-10-07T02:56:33.079Z,4.97
2022-10-07T02:59:05.798Z,5.03
2022-10-07T03:01:37.995Z,4.83
2022-10-07T03:04:05.909Z,4.73
2022-10-07T03:06:34.707Z,4.80
2022-10-07T03:09:02.071Z,4.97
2022-10-07T03:11:28.683Z,4.87
2022-10-07T03:13:55.335Z,4.53
2022-10-07T03:16:22.115Z,5.30
2022-10-07T03:18:48.782Z,5.10
2022-10-07T03:21:16.175Z,5.33
2022-10-07T03:23:43.316Z,4.60
2022-10-07T03:26:09.999Z,4.90
2022-10-07T03:28:37.590Z,4.47
2022-10-07T03:31:10.191Z,4.87
2022-10-07T03:33:37.358Z,4.43
2022-10-07T03:36:05.829Z,4.17
2022-10-07T03:38:33.070Z,4.77
2022-10-07T03:41:01.838Z,4.67
2022-10-07T03:43:28.861Z,4.97
2022-10-07T03:45:56.942Z,4.50
2022-10-07T03:48:23.951Z,5.03
2022-10-07T03:50:56.449Z,4.50
2022-10-07T03:53:23.977Z,5.03
2022-10-07T03:55:50.694Z,4.60
2022-10-07T03:58:17.470Z,4.80
2022-10-07T04:00:44.169Z,4.60
2022-10-07T04:03:11.418Z,4.73
2022-10-07T04:05:38.169Z,4.40
2022-10-07T04:08:05.155Z,5.10
2022-10-07T04:10:32.439Z,5.20
2022-10-07T04:12:59.176Z,4.40
2022-10-07T04:15:26.145Z,4.67
2022-10-07T04:17:58.400Z,5.13
2022-10-07T04:20:28.434Z,5.33
2022-10-07T04:22:55.114Z,4.97
2022-10-07T04:25:33.883Z,4.97
2022-10-07T04:28:12.397Z,4.80
2022-10-07T04:30:44.769Z,4.93
2022-10-07T04:33:12.365Z,5.20
2022-10-07T04:35:40.442Z,5.00
2022-10-07T04:38:11.952Z,4.63
2022-10-07T04:40:40.930Z,4.30
2022-10-07T04:43:26.821Z,5.60
2022-10-07T04:45:55.426Z,5.07
2022-10-07T04:48:23.796Z,5.30
2022-10-07T04:50:52.244Z,5.50
2022-10-07T04:53:19.788Z,4.77
2022-10-07T04:55:50.026Z,5.20
2022-10-07T04:58:17.582Z,5.60
2022-10-07T05:00:46.053Z,4.60
2022-10-07T05:03:14.440Z,4.63
2022-10-07T05:05:46.589Z,4.97
2022-10-07T05:08:15.482Z,4.83
2022-10-07T05:10:42.916Z,5.30
2022-10-07T05:13:12.914Z,5.20
2022-10-07T05:15:49.035Z,5.00
2022-10-07T05:18:15.909Z,5.50
2022-10-07T05:20:43.421Z,4.70
2022-10-07T05:23:10.138Z,5.60
2022-10-07T05:25:36.878Z,5.40
2022-10-07T05:28:03.655Z,5.77
2022-10-07T05:30:30.343Z,5.00
2022-10-07T05:32:56.980Z,5.30
2022-10-07T05:35:23.629Z,5.13
2022-10-07T05:37:54.547Z,5.60
2022-10-07T05:40:21.938Z,4.90
2022-10-07T05:42:49.639Z,5.17
2022-10-07T05:45:16.505Z,4.97
2022-10-07T05:47:43.556Z,5.30
2022-10-07T05:50:10.436Z,5.30
2022-10-07T05:52:38.178Z,5.73
2022-10-07T05:55:05.188Z,5.40
2022-10-07T05:57:32.189Z,5.43
2022-10-07T05:59:59.043Z,5.33
2022-10-07T06:02:26.121Z,5.37
2022-10-07T06:04:52.878Z,5.57
2022-10-07T06:07:21.977Z,5.70
2022-10-07T06:10:08.859Z,5.67
2022-10-07T06:12:55.745Z,4.67
2022-10-07T06:15:22.715Z,6.17
2022-10-07T06:17:49.615Z,5.53
2022-10-07T06:20:16.514Z,4.80
2022-10-07T06:22:44.233Z,5.10
2022-10-07T06:25:10.967Z,5.03
2022-10-07T06:27:37.659Z,4.80
2022-10-07T06:30:04.943Z,5.80
2022-10-07T06:32:32.709Z,6.10
2022-10-07T06:34:59.459Z,5.67
2022-10-07T06:37:26.354Z,5.60
2022-10-07T06:39:57.406Z,5.93
2022-10-07T06:42:26.138Z,4.50
2022-10-07T06:44:53.890Z,4.80
2022-10-07T06:47:21.397Z,5.27
2022-10-07T06:49:48.403Z,5.00
2022-10-07T06:52:15.395Z,5.73
2022-10-07T06:54:42.290Z,5.00
2022-10-07T06:57:33.028Z,6.10
2022-10-07T06:59:56.683Z,5.73
2022-10-07T07:02:25.654Z,5.37
2022-10-07T07:04:57.753Z,5.53
2022-10-07T07:07:25.048Z,5.73
2022-10-07T07:09:52.089Z,6.37
2022-10-07T07:12:18.821Z,5.57
2022-10-07T07:14:45.851Z,6.00
2022-10-07T07:17:12.631Z,6.50
2022-10-07T07:19:39.424Z,6.63
2022-10-07T07:22:08.150Z,6.23
2022-10-07T07:24:34.874Z,7.13
2022-10-07T07:27:01.640Z,6.90
2022-10-07T07:29:28.594Z,6.13
2022-10-07T07:31:55.249Z,5.93
2022-10-07T07:34:22.089Z,5.33
2022-10-07T07:36:52.873Z,6.00
2022-10-07T07:39:20.918Z,6.60
2022-10-07T07:41:47.996Z,5.80
2022-10-07T07:44:17.040Z,6.00
2022-10-07T07:46:48.349Z,6.10
2022-10-07T07:49:15.877Z,6.50
2022-10-07T07:51:43.195Z,5.70
2022-10-07T07:54:11.494Z,6.47
2022-10-07T07:56:38.526Z,5.37
2022-10-07T07:59:05.909Z,5.53
2022-10-07T08:01:32.780Z,6.27
2022-10-07T08:04:00.970Z,6.60
2022-10-07T08:06:28.652Z,5.80
2022-10-07T08:08:59.555Z,7.10
2022-10-07T08:11:27.281Z,5.80
2022-10-07T08:13:56.082Z,5.53
2022-10-07T08:16:24.927Z,6.00
2022-10-07T08:18:55.689Z,5.60
2022-10-07T08:21:26.771Z,6.00
2022-10-07T08:23:55.038Z,6.37
2022-10-07T08:26:21.733Z,6.23
2022-10-07T08:28:49.102Z,6.10
2022-10-07T08:31:18.422Z,6.70
2022-10-07T08:33:47.151Z,6.83
2022-10-07T08:36:22.081Z,6.13
2022-10-07T08:38:49.768Z,5.87
2022-10-07T08:41:25.670Z,5.47
2022-10-07T08:43:52.729Z,4.90
2022-10-07T08:46:31.831Z,5.63
2022-10-07T08:49:10.726Z,5.17
2022-10-07T08:51:50.216Z,5.80
2022-10-07T08:54:25.545Z,5.07
2022-10-07T08:56:53.151Z,4.77
2022-10-07T08:59:29.538Z,5.03
2022-10-07T09:02:09.499Z,4.80
2022-10-07T09:04:54.657Z,5.20
2022-10-07T09:07:47.961Z,4.00
2022-10-07T09:10:23.549Z,3.80
2022-10-07T09:13:05.634Z,4.03
2022-10-07T09:15:54.744Z,4.80
2022-10-07T09:18:39.235Z,3.90
2022-10-07T09:21:13.007Z,3.77
2022-10-07T09:23:39.836Z,3.67
2022-10-07T09:26:13.318Z,3.87
2022-10-07T09:28:40.546Z,4.00
2022-10-07T09:31:07.982Z,4.07
2022-10-07T09:33:42.664Z,3.57
2022-10-07T09:36:11.673Z,4.90
2022-10-07T09:38:42.966Z,4.30
2022-10-07T09:41:35.441Z,4.60
2022-10-07T09:44:17.252Z,4.10
2022-10-07T09:46:49.184Z,4.00
2022-10-07T09:49:43.151Z,4.60
2022-10-07T09:52:24.135Z,4.63
2022-10-07T09:54:56.543Z,4.60
2022-10-07T09:57:34.096Z,4.23
2022-10-07T10:00:13.077Z,5.00
2022-10-07T10:02:41.741Z,4.53
2022-10-07T10:05:22.732Z,4.87
2022-10-07T10:07:57.068Z,4.23
2022-10-07T10:10:30.489Z,5.00
2022-10-07T10:12:59.283Z,4.07
2022-10-07T10:15:42.384Z,5.10
2022-10-07T10:18:33.988Z,5.00
2022-10-07T10:21:27.312Z,4.33
2022-10-07T10:23:57.423Z,4.60
2022-10-07T10:26:37.622Z,5.73
2022-10-07T10:29:15.791Z,4.90
2022-10-07T10:32:21.360Z,4.43
2022-10-07T10:34:54.243Z,5.20
2022-10-07T10:37:41.613Z,5.43
2022-10-07T10:40:23.132Z,5.87
2022-10-07T10:43:22.541Z,5.50
2022-10-07T10:46:15.958Z,4.93
2022-10-07T10:48:48.633Z,5.07
2022-10-07T10:51:34.655Z,5.57
2022-10-07T10:54:10.493Z,4.63
2022-10-07T10:57:05.129Z,5.30
2022-10-07T10:59:55.428Z,5.47
2022-10-07T11:02:33.868Z,5.70
2022-10-07T11:05:17.373Z,5.33
2022-10-07T11:07:54.241Z,5.07
2022-10-07T11:10:26.026Z,4.70
2022-10-07T11:12:58.222Z,4.40
2022-10-07T11:15:41.427Z,4.83
2022-10-07T11:18:15.390Z,4.63
2022-10-07T11:20:48.448Z,4.40
2022-10-07T11:23:36.940Z,5.00
2022-10-07T11:26:33.764Z,5.17
2022-10-07T11:29:11.342Z,4.10
2022-10-07T11:31:42.450Z,5.77
2022-10-07T11:34:19.009Z,4.80
2022-10-07T11:37:03.217Z,5.77
2022-10-07T11:39:30.460Z,5.30
2022-10-07T11:42:02.053Z,6.10
2022-10-07T11:44:46.134Z,5.13
2022-10-07T11:47:17.737Z,5.90
2022-10-07T11:50:07.807Z,5.77
2022-10-07T11:52:40.576Z,5.60
2022-10-07T11:55:12.318Z,5.90
2022-10-07T11:57:43.778Z,5.70
2022-10-07T12:00:29.749Z,6.40
2022-10-07T12:03:10.666Z,5.63
2022-10-07T12:05:37.339Z,5.87
2022-10-07T12:08:27.550Z,5.50
2022-10-07T12:10:56.151Z,6.33
2022-10-07T12:13:22.899Z,5.13
2022-10-07T12:15:50.883Z,5.70
2022-10-07T12:18:24.139Z,5.37
2022-10-07T12:20:50.823Z,5.70
2022-10-07T12:23:26.246Z,4.67
2022-10-07T12:26:04.583Z,4.50
2022-10-07T12:28:48.789Z,5.13
2022-10-07T12:31:15.604Z,4.77
2022-10-07T12:34:10.215Z,5.50
2022-10-07T12:36:42.861Z,5.43
2022-10-07T12:39:12.262Z,5.37
2022-10-07T12:41:43.923Z,4.80
2022-10-07T12:44:27.478Z,5.30
2022-10-07T12:47:23.132Z,4.77
2022-10-07T12:50:00.597Z,4.60
2022-10-07T12:52:51.329Z,5.40
2022-10-07T12:55:29.171Z,5.10
2022-10-07T12:58:17.383Z,6.10
2022-10-07T13:01:11.936Z,5.10
2022-10-07T13:04:16.680Z,5.57
2022-10-07T13:07:14.384Z,5.13
2022-10-07T13:10:07.384Z,5.50
2022-10-07T13:12:40.079Z,5.17
2022-10-07T13:15:14.534Z,5.00
2022-10-07T13:18:08.622Z,5.07
2022-10-07T13:20:56.038Z,4.13
2022-10-07T13:23:31.998Z,5.00
2022-10-07T13:26:01.605Z,5.30
2022-10-07T13:28:53.744Z,5.13
2022-10-07T13:31:27.058Z,3.63
2022-10-07T13:33:56.154Z,5.43
2022-10-07T13:36:26.260Z,4.10
2022-10-07T13:39:15.060Z,4.80
2022-10-07T13:41:47.607Z,4.80
2022-10-07T13:44:18.351Z,5.20
2022-10-07T13:47:05.823Z,4.60
2022-10-07T13:49:47.091Z,5.00
2022-10-07T13:52:29.114Z,5.67
2022-10-07T13:54:55.878Z,5.67
2022-10-07T13:57:23.551Z,5.03
2022-10-07T13:59:51.631Z,4.87
2022-10-07T14:02:20.514Z,5.20
2022-10-07T14:04:58.201Z,5.30
2022-10-07T14:07:27.809Z,5.10
2022-10-07T14:10:00.703Z,4.80
2022-10-07T14:12:35.537Z,5.60
2022-10-07T14:15:24.643Z,4.83
2022-10-07T14:17:58.591Z,4.37
2022-10-07T14:20:30.498Z,5.60
2022-10-07T14:23:00.101Z,5.17
2022-10-07T14:25:51.329Z,4.90
2022-10-07T14:28:24.456Z,5.03
2022-10-07T14:31:25.072Z,4.93
2022-10-07T14:34:13.557Z,4.80
2022-10-07T14:37:18.480Z,6.00
2022-10-07T14:39:47.967Z,4.97
2022-10-07T14:42:24.730Z,5.70
2022-10-07T14:44:53.214Z,5.20
2022-10-07T14:47:22.233Z,4.77
2022-10-07T14:49:49.312Z,5.03
2022-10-07T14:52:47.250Z,6.50
2022-10-07T14:55:18.510Z,6.03
2022-10-07T14:57:47.060Z,5.63
2022-10-07T15:00:29.231Z,6.10
2022-10-07T15:02:58.163Z,5.17
2022-10-07T15:05:26.504Z,6.07
2022-10-07T15:07:53.394Z,9.00
2022-10-07T15:10:23.228Z,6.10
2022-10-07T15:12:50.137Z,6.10
2022-10-07T15:15:17.118Z,12.03
2022-10-07T15:17:44.518Z,14.27
2022-10-07T15:20:14.078Z,7.60
2022-10-07T15:22:41.369Z,6.30
2022-10-07T15:25:09.840Z,5.77
2022-10-07T15:27:37.902Z,5.90
2022-10-07T15:30:09.029Z,6.57
2022-10-07T15:32:36.019Z,5.80
2022-10-07T15:35:02.779Z,6.40
2022-10-07T15:37:29.690Z,6.10
2022-10-07T15:39:56.480Z,6.47
2022-10-07T15:42:24.769Z,8.50
2022-10-07T15:44:52.916Z,7.80
2022-10-07T15:47:20.082Z,6.80
2022-10-07T15:49:46.886Z,10.20
2022-10-07T15:52:13.664Z,6.00
2022-10-07T15:54:40.732Z,10.63
2022-10-07T15:57:08.417Z,13.10
2022-10-07T15:59:35.671Z,8.30
2022-10-07T16:02:03.760Z,6.07
2022-10-07T16:04:30.556Z,5.47
2022-10-07T16:06:58.155Z,6.00
2022-10-07T16:09:25.087Z,5.80
2022-10-07T16:11:51.878Z,5.63
2022-10-07T16:14:18.686Z,5.13
2022-10-07T16:16:46.232Z,13.33
2022-10-07T16:19:13.112Z,30.13
2022-10-07T16:21:41.916Z,15.10
2022-10-07T16:24:16.735Z,16.80
2022-10-07T16:26:44.588Z,9.63
2022-10-07T16:29:40.849Z,11.60
2022-10-07T16:32:11.650Z,8.80
2022-10-07T16:34:41.997Z,6.23
2022-10-07T16:37:09.011Z,5.93
2022-10-07T16:39:35.737Z,13.37
2022-10-07T16:42:02.686Z,15.70
2022-10-07T16:44:29.689Z,23.93
2022-10-07T16:46:57.725Z,23.60
2022-10-07T16:49:26.132Z,14.13
2022-10-07T16:51:53.114Z,11.20
2022-10-07T16:54:20.336Z,12.20
2022-10-07T16:56:49.927Z,10.57
2022-10-07T16:59:23.273Z,9.40
2022-10-07T17:01:52.614Z,12.00
2022-10-07T17:04:19.593Z,11.23
2022-10-07T17:06:46.654Z,9.90
2022-10-07T17:09:14.117Z,11.37
2022-10-07T17:11:41.740Z,11.67
2022-10-07T17:14:11.371Z,10.97
2022-10-07T17:16:42.288Z,12.50
2022-10-07T17:19:20.998Z,13.10
2022-10-07T17:21:49.641Z,11.10
2022-10-07T17:24:18.456Z,7.63
2022-10-07T17:26:46.198Z,8.07
2022-10-07T17:29:18.245Z,13.57
2022-10-07T17:31:48.249Z,11.47
2022-10-07T17:34:19.892Z,19.70
2022-10-07T17:36:47.830Z,19.83
2022-10-07T17:39:15.273Z,12.63
2022-10-07T17:41:42.062Z,10.87
2022-10-07T17:44:11.543Z,10.20
2022-10-07T17:46:39.702Z,7.50
2022-10-07T17:49:08.670Z,7.30
2022-10-07T17:51:37.292Z,6.37
2022-10-07T17:54:06.092Z,10.43
2022-10-07T17:56:34.726Z,16.17
2022-10-07T17:59:02.530Z,16.30
2022-10-07T18:01:33.459Z,16.23
2022-10-07T18:04:10.284Z,16.80
2022-10-07T18:06:39.308Z,22.17
2022-10-07T18:09:07.588Z,20.97
2022-10-07T18:11:53.523Z,22.93
2022-10-07T18:14:39.245Z,25.43
2022-10-07T18:17:07.205Z,10.60
2022-10-07T18:19:34.087Z,8.33
2022-10-07T18:22:02.978Z,10.87
2022-10-07T18:24:29.804Z,13.37
2022-10-07T18:26:59.167Z,18.20
2022-10-07T18:29:27.307Z,17.03
2022-10-07T18:31:54.286Z,19.90
2022-10-07T18:34:21.119Z,16.80
2022-10-07T18:36:50.593Z,22.67
2022-10-07T18:39:19.416Z,15.63
2022-10-07T18:41:46.240Z,16.77
2022-10-07T18:44:13.711Z,23.20
2022-10-07T18:46:40.432Z,15.50
2022-10-07T18:49:09.334Z,14.00
2022-10-07T18:51:36.131Z,9.90
2022-10-07T18:54:03.005Z,12.83
2022-10-07T18:56:29.806Z,12.43
2022-10-07T18:58:57.881Z,17.77
2022-10-07T19:01:27.776Z,19.00
2022-10-07T19:04:00.310Z,10.03
2022-10-07T19:06:28.996Z,9.70
2022-10-07T19:08:57.860Z,8.33
2022-10-07T19:11:25.344Z,8.93
2022-10-07T19:13:56.630Z,9.30
2022-10-07T19:16:36.852Z,8.80
2022-10-07T19:19:17.227Z,8.67
2022-10-07T19:21:49.279Z,8.60
2022-10-07T19:24:16.238Z,8.70
2022-10-07T19:26:48.991Z,9.67
2022-10-07T19:29:17.905Z,8.80
2022-10-07T19:31:48.758Z,9.20
2022-10-07T19:34:19.172Z,9.70
2022-10-07T19:36:49.940Z,9.60
2022-10-07T19:39:22.031Z,10.70
2022-10-07T19:41:50.958Z,10.67
2022-10-07T19:44:17.868Z,9.93
2022-10-07T19:46:44.835Z,9.23
2022-10-07T19:49:12.478Z,9.90
2022-10-07T19:51:40.492Z,9.97
2022-10-07T19:54:10.130Z,10.57
2022-10-07T19:56:38.227Z,10.50
2022-10-07T19:59:10.773Z,10.67
2022-10-07T20:01:41.743Z,10.50
2022-10-07T20:04:20.983Z,12.20
2022-10-07T20:06:48.666Z,10.67
2022-10-07T20:09:17.287Z,11.30
2022-10-07T20:11:44.483Z,9.87
2022-10-07T20:14:11.398Z,10.63
2022-10-07T20:16:39.173Z,9.63
2022-10-07T20:19:11.289Z,11.07
2022-10-07T20:21:38.646Z,9.97
2022-10-07T20:24:07.639Z,9.57
2022-10-07T20:26:37.137Z,10.80
2022-10-07T20:29:05.745Z,11.10
2022-10-07T20:31:35.908Z,11.03
2022-10-07T20:34:03.646Z,10.53
2022-10-07T20:36:36.576Z,10.83
2022-10-07T20:39:24.949Z,10.90
2022-10-07T20:42:11.495Z,10.80
2022-10-07T20:44:39.077Z,11.53
2022-10-07T20:47:08.342Z,10.80
2022-10-07T20:49:37.290Z,10.10
2022-10-07T20:52:14.020Z,11.30
2022-10-07T20:54:40.884Z,11.77
2022-10-07T20:57:07.826Z,11.33
2022-10-07T20:59:34.602Z,11.03
2022-10-07T21:02:04.876Z,10.93
2022-10-07T21:04:31.775Z,11.27
2022-10-07T21:06:59.224Z,10.47
2022-10-07T21:09:26.328Z,12.60
2022-10-07T21:11:54.748Z,12.00
2022-10-07T21:14:22.687Z,11.23
2022-10-07T21:16:49.759Z,11.70
2022-10-07T21:19:17.193Z,11.97
2022-10-07T21:21:44.265Z,11.97
2022-10-07T21:24:11.075Z,11.10
2022-10-07T21:26:37.879Z,12.17
2022-10-07T21:29:08.042Z,11.10
2022-10-07T21:31:35.855Z,12.27
2022-10-07T21:34:10.821Z,12.10
2022-10-07T21:36:40.676Z,11.43
2022-10-07T21:39:07.577Z,12.60
2022-10-07T21:41:37.456Z,11.20
2022-10-07T21:44:06.762Z,13.13
2022-10-07T21:46:36.614Z,13.47
2022-10-07T21:49:06.047Z,11.83
2022-10-07T21:51:34.350Z,13.80
2022-10-07T21:54:02.153Z,13.73
2022-10-07T21:56:30.899Z,12.10
2022-10-07T21:59:00.790Z,13.20
2022-10-07T22:01:28.571Z,13.33
2022-10-07T22:04:01.056Z,13.57
2022-10-07T22:06:48.079Z,13.23
2022-10-07T22:09:15.768Z,12.23
2022-10-07T22:11:42.513Z,13.30
2022-10-07T22:14:12.799Z,12.87
2022-10-07T22:16:40.456Z,13.60
2022-10-07T22:19:07.990Z,12.67
2022-10-07T22:21:38.218Z,13.90
2022-10-07T22:24:07.028Z,13.73
2022-10-07T22:26:38.983Z,13.20
2022-10-07T22:29:07.116Z,15.57
2022-10-07T22:31:33.998Z,15.13
2022-10-07T22:34:01.666Z,14.47
2022-10-07T22:36:29.817Z,14.90
2022-10-07T22:38:57.321Z,15.10
2022-10-07T22:41:24.572Z,14.27
2022-10-07T22:43:55.401Z,14.30
2022-10-07T22:46:26.789Z,15.00
2022-10-07T22:48:56.463Z,15.17
2022-10-07T22:51:26.886Z,12.60
2022-10-07T22:53:54.720Z,15.57
2022-10-07T22:56:23.020Z,15.23
2022-10-07T22:58:53.465Z,14.33
2022-10-07T23:01:20.927Z,12.50
2022-10-07T23:03:48.023Z,13.80
2022-10-07T23:06:17.757Z,14.50
2022-10-07T23:08:45.390Z,13.33
2022-10-07T23:11:18.001Z,14.37
2022-10-07T23:13:45.969Z,13.50
2022-10-07T23:16:16.954Z,15.27
2022-10-07T23:18:45.366Z,13.07
2022-10-07T23:21:16.197Z,14.53
2022-10-07T23:23:46.440Z,12.20
2022-10-07T23:26:26.447Z,15.00
2022-10-07T23:28:55.113Z,14.87
2022-10-07T23:31:23.728Z,12.23
2022-10-07T23:33:51.885Z,13.10
2022-10-07T23:36:20.222Z,13.00
2022-10-07T23:38:48.124Z,12.83
2022-10-07T23:41:17.721Z,14.20
2022-10-07T23:43:44.522Z,13.13
2022-10-07T23:46:13.342Z,14.47
2022-10-07T23:48:41.332Z,13.87
2022-10-07T23:51:10.123Z,14.40
2022-10-07T23:53:37.030Z,13.03
2022-10-07T23:56:03.803Z,13.77
2022-10-07T23:58:33.030Z,13.77
